Time;durP1;ratioP1;P1;durP2;ratioP2;P2;SDS_P1;SDS_P2;PMS_P1;PMS_P2;Temp;Humidity;BMP_temperature;BMP_pressure;BME280_temperature;BME280_humidity;BME280_pressure;Samples;Min_cycle;Max_cycle;Signal;HPM_P1;HPM_P2
2023/03/23 00:00:38;;;;;;;3.97;2.25;;;;;;;10.69;100.00;100101.59;4999220;28;20026;-93
2023/03/23 00:03:14;;;;;;;4.23;2.20;;;;;;;10.75;100.00;100126.94;4998514;28;20088;-94
2023/03/23 00:06:07;;;;;;;4.82;2.20;;;;;;;10.79;100.00;100114.56;4983052;28;20026;-93
2023/03/23 00:08:49;;;;;;;6.93;2.17;;;;;;;10.78;100.00;100097.47;5016057;28;20108;-93
2023/03/23 00:11:34;;;;;;;4.35;2.20;;;;;;;10.77;100.00;100093.06;4998153;28;20046;-93
2023/03/23 00:14:31;;;;;;;4.40;2.47;;;;;;;10.77;100.00;100101.22;4998805;28;20045;-93
2023/03/23 00:16:53;;;;;;;6.33;2.20;;;;;;;10.76;100.00;100117.75;4996585;28;20477;-93
2023/03/23 00:19:34;;;;;;;;;;;;;;;;;;;;;
2023/03/23 00:22:27;;;;;;;5.43;2.45;;;;;;;10.85;100.00;100094.63;4985545;28;20030;-93
2023/03/23 00:28:30;;;;;;;4.97;2.30;;;;;;;10.82;100.00;100097.78;4996592;28;20069;-93
2023/03/23 00:31:21;;;;;;;;;;;;;;;;;;;;;
2023/03/23 00:34:01;;;;;;;4.63;2.30;;;;;;;10.91;100.00;100114.56;5015312;28;20030;-92
2023/03/23 00:36:46;;;;;;;6.90;2.17;;;;;;;10.88;100.00;100118.59;4982538;28;20125;-93
2023/03/23 00:39:19;;;;;;;6.70;2.38;;;;;;;10.89;100.00;100109.38;4982789;28;20026;-94
2023/03/23 00:41:49;;;;;;;4.38;2.35;;;;;;;10.90;100.00;100108.31;4998102;28;20073;-93
2023/03/23 00:44:40;;;;;;;7.27;2.63;;;;;;;10.92;100.00;100108.06;4997833;28;20028;-94
2023/03/23 00:47:12;;;;;;;7.05;2.67;;;;;;;10.90;100.00;100102.88;4983686;28;20034;-93
2023/03/23 00:49:42;;;;;;;5.22;2.53;;;;;;;10.75;100.00;100086.22;4998605;28;20033;-94
2023/03/23 00:52:25;;;;;;;;;;;;;;;;;;;;;
2023/03/23 00:55:06;;;;;;;6.22;2.47;;;;;;;10.31;100.00;100091.94;4999378;28;20037;-93
2023/03/23 00:57:50;;;;;;;7.97;2.90;;;;;;;10.10;100.00;100088.69;4957216;28;20121;-94
2023/03/23 01:00:26;;;;;;;;;;;;;;;;;;;;;
2023/03/23 01:03:05;;;;;;;8.43;3.30;;;;;;;9.90;100.00;100080.00;5014861;28;20037;-93
2023/03/23 01:05:47;;;;;;;6.60;3.40;;;;;;;9.84;100.00;100065.50;4997222;28;20033;-93
2023/03/23 01:08:23;;;;;;;6.72;3.47;;;;;;;9.84;100.00;100065.50;4997781;28;20426;-93
2023/03/23 01:11:10;;;;;;;5.57;3.50;;;;;;;9.83;100.00;100063.84;4997483;28;20033;-93
2023/03/23 01:14:04;;;;;;;5.40;3.47;;;;;;;9.83;100.00;100058.41;4996490;28;20073;-93
2023/03/23 01:16:32;;;;;;;5.90;3.25;;;;;;;9.86;100.00;100027.34;4983803;28;20069;-93
2023/03/23 01:19:00;;;;;;;6.95;3.70;;;;;;;9.86;100.00;100040.88;4980580;28;20061;-93
2023/03/23 01:21:58;;;;;;;4.88;3.40;;;;;;;9.90;100.00;100039.38;4997093;28;20029;-93
2023/03/23 01:24:40;;;;;;;4.67;2.40;;;;;;;9.85;100.00;100037.34;4994783;28;20038;-92
2023/03/23 01:30:50;;;;;;;;;;;;;;;;;;;;;
2023/03/23 01:33:21;;;;;;;6.28;3.25;;;;;;;9.95;100.00;100043.03;5014522;28;20482;-93
2023/03/23 01:36:06;;;;;;;4.78;3.40;;;;;;;9.94;100.00;100040.56;4980788;28;20417;-93
2023/03/23 01:39:01;;;;;;;;;;;;;;;;;;;;;
2023/03/23 01:42:01;;;;;;;;;;;;;;;;;;;;;
2023/03/23 01:44:42;;;;;;;;;;;;;;;;;;;;;
2023/03/23 01:47:26;;;;;;;4.95;3.22;;;;;;;10.08;100.00;100035.75;5018740;28;20093;-92
2023/03/23 01:49:56;;;;;;;4.30;3.17;;;;;;;10.06;100.00;100046.03;4996999;28;20025;-93
2023/03/23 01:52:45;;;;;;;8.77;3.53;;;;;;;10.08;100.00;100044.72;4981046;28;20112;-93
2023/03/23 01:55:23;;;;;;;;;;;;;;;;;;;;;
2023/03/23 01:57:58;;;;;;;5.50;3.13;;;;;;;10.25;100.00;100036.75;5014575;28;20033;-93
2023/03/23 02:00:34;;;;;;;6.55;2.90;;;;;;;10.27;100.00;100018.34;4997042;28;20060;-93
2023/03/23 02:03:33;;;;;;;;;;;;;;;;;;;;;
2023/03/23 02:06:06;;;;;;;6.27;3.30;;;;;;;10.53;100.00;100030.66;4968315;28;20046;-93
2023/03/23 02:08:46;;;;;;;;;;;;;;;;;;;;;
2023/03/23 02:11:24;;;;;;;3.92;2.72;;;;;;;10.61;100.00;100009.69;5016872;28;20022;-93
2023/03/23 02:13:52;;;;;;;5.18;3.15;;;;;;;10.67;100.00;99998.72;5011864;28;20061;-92
2023/03/23 02:16:48;;;;;;;;;;;;;;;;;;;;;
2023/03/23 02:19:48;;;;;;;;;;;;;;;;;;;;;
2023/03/23 02:23:08;;;;;;;5.68;2.85;;;;;;;11.00;100.00;99994.56;5009102;28;20088;-93
2023/03/23 02:25:50;;;;;;;3.70;2.67;;;;;;;11.11;100.00;100011.06;5013195;28;20034;-94
2023/03/23 02:28:59;;;;;;;5.55;2.40;;;;;;;11.14;100.00;100010.56;4996500;28;20050;-93
2023/03/23 02:32:07;;;;;;;;;;;;;;;;;;;;;
2023/03/23 02:34:47;;;;;;;5.70;2.80;;;;;;;11.16;100.00;99992.97;5013714;28;20470;-93
2023/03/23 02:37:45;;;;;;;4.03;2.70;;;;;;;11.22;100.00;99992.00;4996808;28;20081;-93
2023/03/23 02:40:46;;;;;;;4.68;2.63;;;;;;;11.23;100.00;99990.13;4968540;28;20048;-93
2023/03/23 02:43:25;;;;;;;3.28;2.58;;;;;;;11.27;100.00;99990.47;4990069;28;20402;-93
2023/03/23 02:46:30;;;;;;;;;;;;;;;;;;;;;
2023/03/23 02:49:14;;;;;;;3.90;2.30;;;;;;;11.28;100.00;99971.22;5017363;28;20381;-93
2023/03/23 02:52:12;;;;;;;3.50;2.25;;;;;;;11.36;100.00;99989.03;5000252;28;20030;-94
2023/03/23 02:54:53;;;;;;;3.63;2.20;;;;;;;11.33;100.00;99990.31;5000145;28;20041;-93
2023/03/23 02:57:47;;;;;;;3.85;2.50;;;;;;;11.40;100.00;100001.88;4999363;28;20030;-93
2023/03/23 03:00:49;;;;;;;;;;;;;;;;;;;;;
2023/03/23 03:03:24;;;;;;;4.00;2.70;;;;;;;11.55;100.00;99989.66;5017435;28;20032;-93
2023/03/23 03:06:00;;;;;;;6.07;2.30;;;;;;;11.56;100.00;99992.13;5001131;28;20085;-93
2023/03/23 03:08:58;;;;;;;5.38;2.50;;;;;;;11.64;100.00;99996.34;4999560;28;20116;-93
2023/03/23 03:11:51;;;;;;;3.75;2.55;;;;;;;11.70;100.00;99991.84;4992441;28;20068;-93
2023/03/23 03:14:46;;;;;;;5.80;2.63;;;;;;;11.61;100.00;99983.25;4998301;28;20046;-92
2023/03/23 03:21:05;;;;;;;4.75;2.65;;;;;;;11.55;100.00;99976.06;4963744;28;20034;-93
2023/03/23 03:33:39;;;;;;;4.10;2.40;;;;;;;11.52;100.00;99992.88;5016657;28;20049;-94
2023/03/23 03:36:45;;;;;;;;;;;;;;;;;;;;;
2023/03/23 03:39:27;;;;;;;4.68;2.13;;;;;;;11.61;100.00;100002.28;5012143;28;20396;-94
2023/03/23 03:42:07;;;;;;;3.58;2.03;;;;;;;11.57;100.00;100001.09;4984209;28;20041;-94
2023/03/23 03:47:44;;;;;;;6.33;2.50;;;;;;;11.61;100.00;99991.41;5016497;28;20045;-94
2023/03/23 03:50:21;;;;;;;4.45;2.20;;;;;;;11.60;100.00;100008.75;4998912;28;20034;-94
2023/03/23 03:53:06;;;;;;;;;;;;;;;;;;;;;
2023/03/23 03:59:00;;;;;;;4.72;1.70;;;;;;;11.65;100.00;99989.00;5005049;28;20038;-94
2023/03/23 04:01:31;;;;;;;4.40;1.70;;;;;;;11.59;100.00;100004.41;4997140;28;20426;-94
2023/03/23 04:04:53;;;;;;;;;;;;;;;;;;;;;
2023/03/23 04:07:51;;;;;;;6.22;1.75;;;;;;;11.62;100.00;100005.78;5016358;28;20496;-94
2023/03/23 04:10:50;;;;;;;;;;;;;;;;;;;;;
2023/03/23 04:13:27;;;;;;;5.03;1.60;;;;;;;11.57;99.11;100026.41;5016490;28;20048;-94
2023/03/23 04:16:09;;;;;;;5.33;1.43;;;;;;;11.61;98.87;100023.19;4997958;28;20034;-94
2023/03/23 04:18:58;;;;;;;5.65;1.50;;;;;;;11.66;98.95;100036.84;4998410;28;20370;-94
2023/03/23 04:21:45;;;;;;;4.63;1.50;;;;;;;11.56;99.00;100013.88;4998230;28;20030;-93
2023/03/23 04:24:23;;;;;;;5.43;1.75;;;;;;;11.51;97.89;100016.47;4984249;28;20036;-94
2023/03/23 04:27:17;;;;;;;;;;;;;;;;;;;;;
2023/03/23 04:29:57;;;;;;;7.67;1.33;;;;;;;11.52;98.58;100023.56;4999930;28;20045;-93
2023/03/23 04:32:46;;;;;;;6.18;1.20;;;;;;;11.54;98.09;100031.47;4983741;28;20061;-94
2023/03/23 04:35:28;;;;;;;;;;;;;;;;;;;;;
2023/03/23 04:38:20;;;;;;;5.00;1.48;;;;;;;11.57;97.82;100045.41;5015156;28;20068;-94
2023/03/23 04:44:07;;;;;;;6.70;1.40;;;;;;;11.63;96.53;100045.50;5015897;28;20050;-94
2023/03/23 04:46:55;;;;;;;8.00;1.50;;;;;;;11.55;97.67;100033.94;5001761;28;20042;-94
2023/03/23 04:49:37;;;;;;;7.55;1.25;;;;;;;11.52;98.08;100047.19;4954284;28;20068;-93
2023/03/23 04:52:14;;;;;;;7.00;1.30;;;;;;;11.36;98.80;100038.72;5001018;28;20113;-94
2023/03/23 04:54:42;;;;;;;5.18;1.17;;;;;;;11.32;99.49;100037.53;4975495;28;20447;-94
2023/03/23 04:57:25;;;;;;;5.27;0.90;;;;;;;11.27;99.71;100023.06;4981531;28;20042;-93
2023/03/23 05:00:18;;;;;;;;;;;;;;;;;;;;;
2023/03/23 05:02:51;;;;;;;4.22;1.02;;;;;;;11.06;100.00;100039.72;5008290;28;20369;-93
2023/03/23 05:15:27;;;;;;;5.40;0.80;;;;;;;11.26;99.42;100054.00;4991839;28;20472;-94
2023/03/23 05:17:55;;;;;;;3.75;1.00;;;;;;;11.32;98.77;100039.44;4981307;28;20109;-93
2023/03/23 05:24:11;;;;;;;6.03;1.02;;;;;;;11.38;97.60;100035.75;4998084;28;20045;-94
2023/03/23 05:26:39;;;;;;;5.43;1.00;;;;;;;11.43;97.45;100040.47;5000207;28;20153;-93
2023/03/23 05:32:02;;;;;;;6.75;1.38;;;;;;;11.39;98.56;100062.69;5014636;28;20040;-94
2023/03/23 05:34:51;;;;;;;6.13;1.27;;;;;;;11.33;98.80;100070.97;4981330;28;20441;-94
2023/03/23 05:44:07;;;;;;;6.40;1.13;;;;;;;11.17;100.00;100048.09;5014454;28;20041;-94
2023/03/23 05:46:45;;;;;;;16.40;1.63;;;;;;;11.09;100.00;100051.16;4979807;28;20498;-94
2023/03/23 05:49:13;;;;;;;6.57;1.33;;;;;;;11.05;100.00;100043.50;4997826;28;20033;-94
2023/03/23 05:51:51;;;;;;;6.13;1.40;;;;;;;11.04;100.00;100047.31;4996845;28;20393;-94
2023/03/23 05:54:51;;;;;;;;;;;;;;;;;;;;;
2023/03/23 05:57:53;;;;;;;6.30;1.55;;;;;;;11.06;100.00;100055.22;5014544;28;20026;-94
2023/03/23 06:00:34;;;;;;;;;;;;;;;;;;;;;
2023/03/23 06:10:30;;;;;;;4.67;1.30;;;;;;;11.05;100.00;100057.06;4954906;29;20407;-93
2023/03/23 06:23:08;;;;;;;5.20;0.93;;;;;;;11.18;99.43;100083.16;4869828;29;20052;-94
2023/03/23 06:26:24;;;;;;;;;;;;;;;;;;;;;
2023/03/23 06:29:11;;;;;;;;;;;;;;;;;;;;;
2023/03/23 06:31:51;;;;;;;4.60;1.17;;;;;;;11.34;98.11;100106.03;5003566;28;20124;-94
2023/03/23 06:38:20;;;;;;;;;;;;;;;;;;;;;
2023/03/23 06:44:17;;;;;;;6.82;1.20;;;;;;;11.22;97.75;100119.63;5018447;28;20053;-95
2023/03/23 06:50:15;;;;;;;6.00;1.30;;;;;;;11.12;98.74;100116.69;5001840;28;20030;-93
2023/03/23 06:52:45;;;;;;;7.47;1.20;;;;;;;11.02;99.61;100124.59;4985043;28;20057;-95
2023/03/23 06:55:24;;;;;;;3.83;1.40;;;;;;;10.97;99.89;100135.31;5000188;28;20393;-96
2023/03/23 06:57:58;;;;;;;4.30;1.35;;;;;;;11.12;99.21;100146.56;4999474;28;20054;-96
2023/03/23 07:06:40;;;;;;;;;;;;;;;;;;;;;
2023/03/23 07:09:13;;;;;;;6.43;1.63;;;;;;;9.95;100.00;100128.91;4987440;28;20488;-95
2023/03/23 07:11:54;;;;;;;5.78;1.63;;;;;;;9.72;100.00;100144.00;5017207;28;20076;-94
2023/03/23 07:14:24;;;;;;;11.30;1.90;;;;;;;9.49;100.00;100147.38;4984063;28;20057;-93
2023/03/23 07:17:12;;;;;;;;;;;;;;;;;;;;;
2023/03/23 07:20:07;;;;;;;8.27;1.65;;;;;;;9.33;100.00;100184.03;5016301;28;20034;-93
2023/03/23 07:22:58;;;;;;;11.33;1.97;;;;;;;9.19;100.00;100180.59;4988207;28;20140;-92
2023/03/23 07:25:44;;;;;;;;;;;;;;;;;;;;;
2023/03/23 07:28:36;;;;;;;11.18;2.20;;;;;;;9.18;100.00;100195.19;4986844;28;20057;-93
2023/03/23 07:31:22;;;;;;;5.72;1.90;;;;;;;9.17;100.00;100209.78;4989044;28;20045;-93
2023/03/23 07:34:36;;;;;;;10.15;2.38;;;;;;;9.19;100.00;100215.78;4980941;28;20034;-94
2023/03/23 07:37:48;;;;;;;9.73;1.70;;;;;;;9.12;100.00;100210.44;4993265;28;20042;-92
2023/03/23 07:40:52;;;;;;;5.88;1.10;;;;;;;8.70;100.00;100177.69;4997791;28;20029;-92
2023/03/23 07:43:43;;;;;;;7.45;1.23;;;;;;;8.55;100.00;100188.00;4995929;28;20042;-92
2023/03/23 07:46:59;;;;;;;;;;;;;;;;;;;;;
2023/03/23 07:50:06;;;;;;;;;;;;;;;;;;;;;
2023/03/23 07:53:12;;;;;;;6.53;1.40;;;;;;;8.50;100.00;100190.50;5013880;28;20034;-92
2023/03/23 07:58:58;;;;;;;6.32;0.93;;;;;;;8.47;100.00;100199.06;5015942;28;20045;-93
2023/03/23 08:04:37;;;;;;;5.60;0.80;;;;;;;8.37;100.00;100211.16;4997086;28;20045;-93
2023/03/23 08:07:14;;;;;;;;;;;;;;;;;;;;;
2023/03/23 08:09:48;;;;;;;3.58;1.00;;;;;;;8.29;100.00;100224.91;5015688;28;20032;-92
2023/03/23 08:12:38;;;;;;;5.10;1.00;;;;;;;8.30;100.00;100241.94;5014133;28;20060;-93
2023/03/23 08:15:50;;;;;;;;;;;;;;;;;;;;;
2023/03/23 08:18:21;;;;;;;3.08;0.70;;;;;;;8.24;100.00;100230.94;5015920;28;20036;-93
2023/03/23 08:21:14;;;;;;;7.40;0.83;;;;;;;8.31;100.00;100239.03;4982610;28;20045;-93
2023/03/23 08:24:01;;;;;;;4.05;0.60;;;;;;;8.29;100.00;100253.81;4972395;28;20124;-93
2023/03/23 08:27:15;;;;;;;5.07;0.70;;;;;;;8.25;100.00;100248.00;4968650;28;20033;-92
2023/03/23 08:33:24;;;;;;;;;;;;;;;;;;;;;
2023/03/23 09:00:27;;;;;;;;;;;;;;;;;;;;;
2023/03/23 09:02:56;;;;;;;4.70;0.65;;;;;;;8.45;100.00;100266.88;4893415;29;20039;-88
2023/03/23 09:08:41;;;;;;;4.47;0.50;;;;;;;8.52;100.00;100234.38;5000175;28;20034;-91
2023/03/23 09:11:18;;;;;;;3.92;1.05;;;;;;;8.75;100.00;100236.53;4998527;28;20042;-92
2023/03/23 09:13:58;;;;;;;7.20;1.00;;;;;;;8.85;100.00;100234.16;4981282;28;20517;-91
2023/03/23 09:16:43;;;;;;;8.98;1.48;;;;;;;8.86;100.00;100233.13;4981543;28;20066;-92
2023/03/23 09:19:21;;;;;;;3.38;0.80;;;;;;;8.89;100.00;100250.81;5014392;28;20022;-91
2023/03/23 09:21:58;;;;;;;6.67;1.07;;;;;;;8.83;100.00;100246.25;4998333;28;20042;-92
2023/03/23 09:24:42;;;;;;;;;;;;;;;;;;;;;
2023/03/23 09:27:19;;;;;;;13.95;1.05;;;;;;;8.82;100.00;100253.53;5014450;28;20036;-91
2023/03/23 09:29:48;;;;;;;5.13;1.33;;;;;;;8.82;100.00;100245.44;4980273;28;20173;-91
2023/03/23 09:32:19;;;;;;;8.27;1.00;;;;;;;8.78;100.00;100241.50;4995586;28;20037;-91
2023/03/23 09:38:03;;;;;;;4.45;0.95;;;;;;;8.94;100.00;100237.44;5006155;28;20387;-91
2023/03/23 09:41:30;;;;;;;5.80;1.20;;;;;;;9.15;100.00;100266.00;4996892;28;20040;-91
2023/03/23 09:44:17;;;;;;;3.00;0.80;;;;;;;9.33;100.00;100264.41;4964680;28;20026;-91
2023/03/23 09:47:15;;;;;;;2.17;1.00;;;;;;;9.42;100.00;100258.50;4999513;28;20049;-90
2023/03/23 09:50:23;;;;;;;3.83;1.00;;;;;;;9.42;100.00;100273.88;5012765;28;20347;-91
2023/03/23 09:53:01;;;;;;;2.72;1.00;;;;;;;9.21;100.00;100259.72;5013138;28;20038;-90
2023/03/23 09:55:37;;;;;;;2.42;1.13;;;;;;;9.13;100.00;100251.88;4996375;28;20030;-91
2023/03/23 09:58:42;;;;;;;4.10;0.80;;;;;;;9.24;100.00;100264.69;5014210;28;20034;-91
2023/03/23 10:01:54;;;;;;;6.22;1.23;;;;;;;9.26;100.00;100256.34;4995192;28;20050;-88
2023/03/23 10:07:47;;;;;;;4.35;1.30;;;;;;;9.42;100.00;100253.06;4933971;29;20047;-89
2023/03/23 10:10:27;;;;;;;6.00;1.40;;;;;;;9.50;100.00;100273.63;4990455;28;20038;-89
2023/03/23 10:13:14;;;;;;;;;;;;;;;;;;;;;
2023/03/23 10:15:58;;;;;;;;;;;;;;;;;;;;;
2023/03/23 10:18:45;;;;;;;4.50;1.20;;;;;;;9.80;100.00;100271.03;5013243;28;20026;-89
2023/03/23 10:21:33;;;;;;;;;;;;;;;;;;;;;
2023/03/23 10:24:56;;;;;;;;;;;;;;;;;;;;;
2023/03/23 10:31:06;;;;;;;;;;;;;;;;;;;;;
2023/03/23 10:33:45;;;;;;;;;;;;;;;;;;;;;
2023/03/23 10:37:07;;;;;;;;;;;;;;;;;;;;;
2023/03/23 10:44:18;;;;;;;3.92;1.25;;;;;;;11.64;100.00;100280.84;4933810;29;20159;-89
2023/03/23 10:46:59;;;;;;;5.43;1.23;;;;;;;11.91;100.00;100283.88;4935002;29;20043;-89
2023/03/23 10:49:48;;;;;;;6.50;1.10;;;;;;;12.11;100.00;100280.81;4917901;29;20106;-89
2023/03/23 10:52:41;;;;;;;5.15;1.20;;;;;;;12.43;100.00;100281.22;4917821;29;20027;-89
2023/03/23 10:55:18;;;;;;;5.05;1.35;;;;;;;12.70;100.00;100272.47;4991169;28;20069;-87
2023/03/23 10:57:59;;;;;;;7.85;1.67;;;;;;;13.09;100.00;100305.28;5013034;28;20034;-86
2023/03/23 11:00:31;;;;;;;5.63;1.50;;;;;;;13.36;96.19;100272.00;5013252;28;20513;-88
2023/03/23 11:03:29;;;;;;;5.20;1.40;;;;;;;13.51;94.83;100271.41;5016231;28;20087;-86
2023/03/23 11:06:29;;;;;;;5.28;1.20;;;;;;;13.88;93.04;100284.50;4998840;28;20040;-87
2023/03/23 11:09:53;;;;;;;5.57;1.42;;;;;;;14.09;92.06;100266.50;5006095;28;20027;-86
2023/03/23 11:29:53;;;;;;;4.55;1.33;;;;;;;15.42;76.41;100280.72;4946935;28;20058;-87
2023/03/23 11:40:33;;;;;;;4.15;1.20;;;;;;;13.95;82.59;100293.34;4937951;28;20050;-89
2023/03/23 11:43:17;;;;;;;2.60;0.90;;;;;;;13.98;82.71;100278.34;4910391;29;20048;-89
2023/03/23 11:46:19;;;;;;;4.47;1.10;;;;;;;14.58;82.24;100290.28;4954442;28;20478;-88
2023/03/23 11:49:09;;;;;;;4.72;0.90;;;;;;;15.79;77.62;100287.31;4978891;28;20030;-89
2023/03/23 12:01:27;;;;;;;3.78;1.10;;;;;;;20.96;61.84;100269.25;4941494;28;20089;-88
2023/03/23 12:21:52;;;;;;;2.20;1.00;;;;;;;20.94;52.42;100268.72;4897660;29;20517;-89
2023/03/23 12:38:28;;;;;;;4.38;1.50;;;;;;;22.77;48.80;100248.16;4980793;28;20152;-90
2023/03/23 12:41:13;;;;;;;4.63;1.60;;;;;;;23.57;44.75;100220.72;4977214;28;20041;-90
2023/03/23 12:43:52;;;;;;;5.63;1.80;;;;;;;23.07;43.37;100235.53;4997494;28;20026;-90
2023/03/23 12:46:45;;;;;;;4.28;1.90;;;;;;;21.24;47.22;100236.25;4997508;28;20401;-91
2023/03/23 12:53:25;;;;;;;6.90;1.75;;;;;;;22.33;49.53;100209.06;4951550;29;20042;-91
2023/03/23 12:56:35;;;;;;;;;;;;;;;;;;;;;
2023/03/23 12:59:35;;;;;;;6.22;1.42;;;;;;;23.20;42.68;100199.84;4953904;29;20042;-91
2023/03/23 13:06:06;;;;;;;5.55;1.60;;;;;;;25.06;40.48;100231.34;4954244;29;20081;-91
2023/03/23 13:12:51;;;;;;;;;;;;;;;;;;;;;
2023/03/23 13:18:28;;;;;;;;;;;;;;;;;;;;;
2023/03/23 13:28:31;;;;;;;8.37;2.10;;;;;;;20.06;48.10;100198.25;4915866;29;20076;-92
2023/03/23 13:31:00;;;;;;;7.68;1.90;;;;;;;18.53;51.76;100206.81;4833807;29;20046;-92
2023/03/23 13:33:32;;;;;;;7.68;2.20;;;;;;;17.23;60.76;100226.69;4915446;29;20109;-91
2023/03/23 13:50:36;;;;;;;;;;;;;;;;;;;;;
2023/03/23 13:56:37;;;;;;;8.25;1.92;;;;;;;10.63;100.00;100257.13;4955333;28;20114;-90
2023/03/23 14:03:16;;;;;;;10.73;2.30;;;;;;;10.79;100.00;100226.66;4915590;29;20107;-90
2023/03/23 14:16:06;;;;;;;8.00;1.80;;;;;;;17.64;100.00;100221.13;4897879;28;20108;-91
2023/03/23 14:18:59;;;;;;;3.42;1.20;;;;;;;18.59;82.42;100206.47;4880645;29;20040;-92
2023/03/23 14:21:39;;;;;;;6.10;1.70;;;;;;;17.35;85.90;100213.53;4895378;29;20120;-91
2023/03/23 14:24:24;;;;;;;6.45;1.60;;;;;;;16.23;83.74;100220.50;4880683;29;20104;-91
2023/03/23 14:30:59;;;;;;;;;;;;;;;;;;;;;
2023/03/23 14:36:31;;;;;;;6.07;1.63;;;;;;;19.22;79.96;100162.84;5001136;28;20048;-90
2023/03/23 14:40:00;;;;;;;5.40;1.80;;;;;;;21.78;74.74;100154.69;4989232;28;20417;-92
2023/03/23 14:42:50;;;;;;;5.13;1.65;;;;;;;22.63;61.87;100159.72;4988505;28;20072;-91
2023/03/23 14:45:35;;;;;;;8.00;1.93;;;;;;;21.66;62.30;100154.38;5015716;28;20034;-90
2023/03/23 14:48:16;;;;;;;8.63;1.77;;;;;;;19.37;69.34;100157.22;4985234;28;20038;-90
2023/03/23 14:51:08;;;;;;;11.40;1.92;;;;;;;18.87;74.59;100151.91;4998888;28;20486;-90
2023/03/23 14:53:53;;;;;;;;;;;;;;;;;;;;;
2023/03/23 14:56:47;;;;;;;;;;;;;;;;;;;;;
2023/03/23 14:59:35;;;;;;;5.93;1.80;;;;;;;23.25;57.23;100155.44;5016725;28;20038;-90
2023/03/23 15:02:22;;;;;;;5.68;1.73;;;;;;;22.32;56.15;100168.75;4998800;28;20030;-90
2023/03/23 15:05:03;;;;;;;4.65;1.83;;;;;;;20.78;59.13;100168.91;5014998;28;20103;-90
2023/03/23 15:07:42;;;;;;;4.13;1.70;;;;;;;20.74;64.90;100173.38;5016182;28;20034;-90
2023/03/23 15:10:22;;;;;;;3.78;1.50;;;;;;;20.63;63.10;100176.25;4998837;28;20065;-90
2023/03/23 15:12:57;;;;;;;5.00;1.57;;;;;;;19.56;64.00;100172.94;4981914;28;20073;-90
2023/03/23 15:15:28;;;;;;;6.43;1.55;;;;;;;18.29;66.85;100174.56;5014942;28;20112;-89
2023/03/23 15:18:05;;;;;;;5.28;1.33;;;;;;;17.28;70.91;100169.94;4998650;28;20371;-89
2023/03/23 15:20:43;;;;;;;4.80;1.60;;;;;;;16.72;76.88;100156.25;4998418;28;20034;-90
2023/03/23 15:23:42;;;;;;;5.72;1.55;;;;;;;16.10;77.11;100154.22;5016199;28;20054;-90
2023/03/23 15:26:22;;;;;;;6.80;1.83;;;;;;;15.61;80.54;100144.41;5015379;28;20026;-90
2023/03/23 15:28:53;;;;;;;7.90;1.90;;;;;;;14.98;83.73;100143.50;4998277;28;20064;-90
2023/03/23 15:31:36;;;;;;;6.45;1.67;;;;;;;14.26;87.78;100132.75;4999149;28;20069;-90
2023/03/23 15:34:06;;;;;;;12.27;2.20;;;;;;;13.76;89.47;100140.09;4998926;28;20482;-90
2023/03/23 15:36:39;;;;;;;10.25;2.30;;;;;;;13.67;92.22;100120.66;5015880;28;20026;-90
2023/03/23 15:39:27;;;;;;;;;;;;;;;;;;;;;
2023/03/23 15:41:57;;;;;;;6.38;1.70;;;;;;;13.04;98.78;100102.88;5015973;28;20044;-90
2023/03/23 15:44:34;;;;;;;7.60;2.20;;;;;;;13.09;97.06;100117.38;5016674;28;20029;-90
2023/03/23 15:47:21;;;;;;;6.30;1.90;;;;;;;13.47;96.58;100106.75;4996909;28;20022;-90
2023/03/23 15:50:07;;;;;;;8.55;1.75;;;;;;;13.79;91.48;100116.94;4992025;28;20465;-92
2023/03/23 15:52:39;;;;;;;4.30;1.50;;;;;;;14.77;89.25;100117.94;5014106;28;20123;-89
2023/03/23 15:55:22;;;;;;;6.75;1.95;;;;;;;16.28;82.08;100121.97;4998040;28;20034;-88
2023/03/23 15:58:11;;;;;;;5.72;1.50;;;;;;;17.81;78.17;100111.09;5006456;28;20033;-89
2023/03/23 16:00:41;;;;;;;8.77;1.52;;;;;;;18.44;66.55;100107.72;5018743;28;20037;-89
2023/03/23 16:31:33;;;;;;;7.65;1.80;;;;;;;13.57;89.35;100155.09;4955606;28;20043;-89
2023/03/23 16:44:32;;;;;;;6.30;1.90;;;;;;;14.85;88.09;100144.75;4936002;29;20099;-91
2023/03/23 16:47:25;;;;;;;10.63;2.30;;;;;;;15.09;87.23;100153.44;4883825;29;20075;-90
2023/03/23 16:54:00;;;;;;;4.93;1.90;;;;;;;14.16;90.53;100129.94;5014485;28;20504;-90
2023/03/23 17:07:02;;;;;;;7.85;2.20;;;;;;;13.42;94.46;100114.84;5018849;28;20451;-91
2023/03/23 17:36:45;;;;;;;7.43;1.83;;;;;;;12.79;97.77;100104.13;4898142;28;20041;-90
2023/03/23 17:42:03;;;;;;;7.75;2.08;;;;;;;12.68;98.11;100088.69;4971158;28;20065;-95
2023/03/23 17:44:35;;;;;;;9.50;2.40;;;;;;;12.70;97.85;100098.28;4973578;28;20081;-94
2023/03/23 17:47:13;;;;;;;8.02;2.00;;;;;;;12.62;98.84;100091.34;5020739;28;20045;-94
2023/03/23 17:49:39;;;;;;;9.48;2.47;;;;;;;12.59;99.31;100097.28;4997811;28;20038;-94
2023/03/23 17:52:55;;;;;;;9.52;2.08;;;;;;;12.66;98.73;100112.63;5012957;28;20040;-94
2023/03/23 17:55:24;;;;;;;10.77;2.40;;;;;;;12.58;98.69;100098.34;5022496;28;20034;-92
2023/03/23 17:58:16;;;;;;;6.93;2.22;;;;;;;12.60;98.13;100098.09;4984655;28;20033;-93
2023/03/23 18:00:57;;;;;;;13.55;2.42;;;;;;;12.63;97.01;100084.00;5017475;28;20044;-94
2023/03/23 18:03:45;;;;;;;8.93;2.35;;;;;;;12.63;97.74;100097.59;5017081;28;20541;-95
2023/03/23 18:06:31;;;;;;;8.57;1.73;;;;;;;12.63;97.36;100101.16;5016556;28;20110;-92
2023/03/23 18:09:07;;;;;;;10.73;2.43;;;;;;;12.62;96.37;100087.78;5016636;28;20492;-95
2023/03/23 18:11:57;;;;;;;8.57;2.70;;;;;;;12.69;95.64;100082.19;5005265;28;20026;-95
2023/03/23 18:14:45;;;;;;;;;;;;;;;;;;;;;
2023/03/23 18:17:49;;;;;;;;;;;;;;;;;;;;;
2023/03/23 18:20:26;;;;;;;8.68;2.35;;;;;;;12.72;93.51;100065.38;5019316;28;20048;-94
2023/03/23 18:23:17;;;;;;;7.23;2.00;;;;;;;12.72;94.60;100057.19;5020303;28;20041;-95
2023/03/23 18:26:15;;;;;;;;;;;;;;;;;;;;;
2023/03/23 18:29:01;;;;;;;8.20;1.88;;;;;;;12.79;92.09;100066.84;5026279;28;20125;-94
2023/03/23 18:31:41;;;;;;;;;;;;;;;;;;;;;
2023/03/23 18:34:10;;;;;;;5.65;1.75;;;;;;;12.78;92.13;100064.34;5022386;28;20025;-95
2023/03/23 18:37:03;;;;;;;5.33;1.47;;;;;;;12.77;92.44;100049.09;5004499;28;20034;-95
2023/03/23 18:39:48;;;;;;;5.47;1.88;;;;;;;12.81;90.98;100050.25;5007226;28;20041;-95
2023/03/23 18:42:43;;;;;;;5.95;1.65;;;;;;;12.79;92.27;100052.41;5016622;28;20050;-95
2023/03/23 18:45:20;;;;;;;9.05;2.15;;;;;;;12.75;91.28;100041.19;5016852;28;20061;-95
2023/03/23 18:48:08;;;;;;;6.20;1.70;;;;;;;12.76;91.02;100037.38;5033981;28;20036;-95
2023/03/23 18:51:00;;;;;;;;;;;;;;;;;;;;;
2023/03/23 18:53:58;;;;;;;6.07;1.95;;;;;;;12.76;90.93;100031.94;5017988;28;20033;-94
2023/03/23 18:56:37;;;;;;;8.02;1.63;;;;;;;12.84;90.20;100033.41;5003948;28;20030;-95
2023/03/23 18:59:12;;;;;;;6.25;1.83;;;;;;;12.86;89.15;100028.56;5017553;28;20040;-95
2023/03/23 19:01:45;;;;;;;8.55;2.00;;;;;;;12.81;89.61;100026.59;5016919;28;20034;-95
2023/03/23 19:05:04;;;;;;;;;;;;;;;;;;;;;
2023/03/23 19:11:08;;;;;;;;;;;;;;;;;;;;;
2023/03/23 19:14:24;;;;;;;;;;;;;;;;;;;;;
2023/03/23 19:17:27;;;;;;;11.45;1.70;;;;;;;12.79;89.43;100017.03;5017950;28;20044;-95
2023/03/23 19:20:41;;;;;;;;;;;;;;;;;;;;;
2023/03/23 19:23:07;;;;;;;7.90;2.25;;;;;;;12.69;90.02;100011.44;5016744;28;20046;-95
2023/03/23 19:26:23;;;;;;;;;;;;;;;;;;;;;
2023/03/23 19:29:16;;;;;;;5.00;1.55;;;;;;;12.72;89.58;100005.47;5018933;28;20026;-95
2023/03/23 19:32:08;;;;;;;7.70;1.70;;;;;;;12.67;89.18;100003.50;5019275;28;20060;-95
2023/03/23 19:41:15;;;;;;;;;;;;;;;;;;;;;
2023/03/23 19:44:06;;;;;;;;;;;;;;;;;;;;;
2023/03/23 19:46:52;;;;;;;;;;;;;;;;;;;;;
2023/03/23 19:49:26;;;;;;;8.98;2.35;;;;;;;11.29;100.00;99991.06;5015909;28;20049;-94
2023/03/23 19:52:30;;;;;;;6.28;2.00;;;;;;;11.13;100.00;99990.75;5000090;28;20033;-94
2023/03/23 19:55:32;;;;;;;;;;;;;;;;;;;;;
2023/03/23 19:58:08;;;;;;;9.52;2.33;;;;;;;10.99;100.00;99987.47;5016716;28;20038;-94
2023/03/23 20:01:21;;;;;;;;;;;;;;;;;;;;;
2023/03/23 20:04:25;;;;;;;12.75;2.53;;;;;;;10.86;100.00;99982.28;5016880;28;20459;-94
2023/03/23 20:07:33;;;;;;;8.48;2.28;;;;;;;10.76;100.00;99987.50;4996058;28;20053;-94
2023/03/23 20:10:29;;;;;;;;;;;;;;;;;;;;;
2023/03/23 20:13:21;;;;;;;8.95;2.15;;;;;;;10.71;100.00;99980.88;5016619;28;20040;-94
2023/03/23 20:16:03;;;;;;;;;;;;;;;;;;;;;
2023/03/23 20:21:44;;;;;;;14.38;2.65;;;;;;;10.68;100.00;99972.41;5008741;28;20535;-94
2023/03/23 20:24:13;;;;;;;7.20;1.92;;;;;;;10.62;100.00;99966.03;5015070;28;20054;-93
2023/03/23 20:26:43;;;;;;;10.13;2.60;;;;;;;10.67;100.00;99966.19;5016784;28;20022;-94
2023/03/23 20:30:08;;;;;;;;;;;;;;;;;;;;;